Time;durP1;ratioP1;P1;durP2;ratioP2;P2;SDS_P1;SDS_P2;PMS_P1;PMS_P2;Temp;Humidity;BMP_temperature;BMP_pressure;BME280_temperature;BME280_humidity;BME280_pressure;Samples;Min_cycle;Max_cycle;Signal;HPM_P1;HPM_P2
2023/04/08 00:00:35;;;;;;;10.15;5.90;;;;;;;6.16;100.00;101272.88;6284379;28;20048;-88
2023/04/08 00:03:36;;;;;;;9.32;6.05;;;;;;;6.15;100.00;101267.78;6284547;28;20047;-88
2023/04/08 00:06:39;;;;;;;7.85;5.13;;;;;;;6.15;100.00;101271.19;6286408;28;20049;-88
2023/04/08 00:09:41;;;;;;;9.30;5.50;;;;;;;6.15;100.00;101276.34;6283439;28;20330;-88
2023/04/08 00:12:43;;;;;;;8.75;5.47;;;;;;;6.12;100.00;101262.81;6286366;28;20037;-88
2023/04/08 00:15:45;;;;;;;7.68;4.93;;;;;;;6.08;100.00;101266.41;6286643;28;20040;-88
2023/04/08 00:18:48;;;;;;;10.43;5.80;;;;;;;6.07;100.00;101267.34;6287374;28;20044;-88
2023/04/08 00:21:50;;;;;;;7.47;5.22;;;;;;;6.03;100.00;101267.47;6284293;28;20608;-88
2023/04/08 00:24:52;;;;;;;10.55;5.68;;;;;;;5.99;100.00;101273.69;6280939;28;20109;-88
2023/04/08 00:27:54;;;;;;;8.68;5.10;;;;;;;5.97;100.00;101272.91;6285784;28;20438;-88
2023/04/08 00:30:56;;;;;;;9.50;5.07;;;;;;;5.97;100.00;101282.38;6286297;28;20039;-88
2023/04/08 00:33:58;;;;;;;7.22;5.43;;;;;;;5.99;100.00;101275.41;6285815;28;20513;-88
2023/04/08 00:37:00;;;;;;;7.28;4.90;;;;;;;6.03;100.00;101271.78;6285238;28;20828;-88
2023/04/08 00:40:03;;;;;;;7.57;5.15;;;;;;;5.98;100.00;101274.56;6283466;28;20178;-88
2023/04/08 00:43:05;;;;;;;8.13;4.93;;;;;;;6.00;100.00;101274.50;6284619;28;20048;-88
2023/04/08 00:46:08;;;;;;;8.15;4.50;;;;;;;6.00;100.00;101277.06;6285072;28;20139;-88
2023/04/08 00:49:10;;;;;;;8.30;5.25;;;;;;;5.99;100.00;101272.84;6248937;28;20068;-88
2023/04/08 00:52:12;;;;;;;7.30;4.60;;;;;;;5.98;100.00;101279.69;6285994;28;20044;-88
2023/04/08 00:55:14;;;;;;;6.60;4.47;;;;;;;6.00;100.00;101277.06;6289747;28;20146;-88
2023/04/08 00:58:17;;;;;;;8.27;4.80;;;;;;;5.91;100.00;101273.16;6276786;28;20049;-88
2023/04/08 01:01:47;;;;;;;7.15;4.88;;;;;;;5.91;100.00;101273.16;6288813;28;20703;-87
2023/04/08 01:05:06;;;;;;;7.65;5.75;;;;;;;5.81;100.00;101267.66;6289542;28;20059;-88
2023/04/08 01:08:10;;;;;;;8.35;5.20;;;;;;;5.79;100.00;101266.88;6287254;28;20491;-87
2023/04/08 01:11:13;;;;;;;6.28;4.65;;;;;;;5.73;100.00;101263.75;6289231;28;20498;-87
2023/04/08 01:14:20;;;;;;;8.05;5.55;;;;;;;5.65;100.00;101271.81;6288059;28;20052;-87
2023/04/08 01:17:22;;;;;;;8.88;5.75;;;;;;;5.63;100.00;101273.63;6288060;28;20445;-87
2023/04/08 01:20:26;;;;;;;9.38;5.75;;;;;;;5.66;100.00;101270.91;6289846;28;20036;-87
2023/04/08 01:24:10;;;;;;;8.23;4.78;;;;;;;5.67;100.00;101271.75;6289998;28;20403;-87
2023/04/08 01:27:13;;;;;;;8.15;5.03;;;;;;;5.66;100.00;101278.63;6278680;28;20056;-87
2023/04/08 01:30:18;;;;;;;9.30;5.28;;;;;;;5.65;100.00;101266.69;6289501;28;20490;-88
2023/04/08 01:33:21;;;;;;;8.77;5.38;;;;;;;5.63;100.00;101281.31;6288410;28;20048;-87
2023/04/08 01:36:25;;;;;;;7.03;4.97;;;;;;;5.65;100.00;101278.69;6290039;28;20036;-87
2023/04/08 01:39:29;;;;;;;11.07;5.70;;;;;;;5.62;100.00;101287.38;6282367;28;20048;-87
2023/04/08 01:42:32;;;;;;;10.38;5.68;;;;;;;5.69;100.00;101285.34;6288068;28;20162;-88
2023/04/08 01:45:34;;;;;;;9.60;5.93;;;;;;;5.69;100.00;101283.63;6287976;28;20051;-88
2023/04/08 01:48:37;;;;;;;9.05;6.07;;;;;;;5.66;100.00;101294.03;6286685;28;20159;-88
2023/04/08 01:51:40;;;;;;;10.73;5.55;;;;;;;5.70;100.00;101289.59;6288767;28;20041;-88
2023/04/08 01:54:41;;;;;;;10.43;6.13;;;;;;;5.71;100.00;101276.66;6287678;28;20139;-88
2023/04/08 01:57:50;;;;;;;7.03;4.90;;;;;;;5.75;100.00;101273.06;6286523;28;20624;-88
2023/04/08 02:00:55;;;;;;;7.97;5.20;;;;;;;5.85;100.00;101267.50;6286253;28;20055;-88
2023/04/08 02:04:00;;;;;;;8.27;5.25;;;;;;;5.90;100.00;101262.97;6270103;28;20139;-88
2023/04/08 02:07:04;;;;;;;7.13;5.40;;;;;;;5.88;100.00;101260.47;6287859;28;20117;-89
2023/04/08 02:10:06;;;;;;;8.57;4.97;;;;;;;5.83;100.00;101249.56;6287818;28;20655;-88
2023/04/08 02:13:08;;;;;;;8.65;5.78;;;;;;;5.76;100.00;101261.91;6287894;28;20052;-88
2023/04/08 02:16:21;;;;;;;8.65;5.78;;;;;;;5.74;100.00;101263.69;6287693;28;20044;-88
2023/04/08 02:19:39;;;;;;;7.75;5.45;;;;;;;5.73;100.00;101269.72;6289026;28;20166;-88
2023/04/08 02:22:49;;;;;;;9.40;5.47;;;;;;;5.79;100.00;101277.16;6286827;28;20050;-88
2023/04/08 02:25:54;;;;;;;8.60;5.45;;;;;;;5.85;100.00;101272.63;6286881;28;20055;-88
2023/04/08 02:29:02;;;;;;;8.93;5.40;;;;;;;5.88;100.00;101273.31;6272996;28;20513;-88
2023/04/08 02:32:05;;;;;;;9.10;5.32;;;;;;;5.96;100.00;101273.84;6285986;28;20036;-88
2023/04/08 02:35:11;;;;;;;8.77;5.90;;;;;;;5.86;100.00;101269.97;6255553;28;20051;-88
2023/04/08 02:38:13;;;;;;;8.60;5.47;;;;;;;5.90;100.00;101273.25;6287235;28;20036;-88
2023/04/08 02:41:15;;;;;;;7.88;5.10;;;;;;;5.84;100.00;101271.81;6266998;28;20715;-88
2023/04/08 02:44:17;;;;;;;10.30;5.63;;;;;;;5.85;100.00;101270.06;6285619;28;20074;-88
2023/04/08 02:47:19;;;;;;;7.80;5.13;;;;;;;5.89;100.00;101279.28;6287443;28;20048;-88
2023/04/08 02:50:21;;;;;;;10.93;6.30;;;;;;;5.90;100.00;101265.53;6285902;28;20158;-88
2023/04/08 02:53:24;;;;;;;9.63;6.18;;;;;;;5.86;100.00;101269.97;6287591;28;20045;-88
2023/04/08 02:56:26;;;;;;;8.32;5.32;;;;;;;5.82;100.00;101264.16;6285883;28;20045;-88
2023/04/08 02:59:28;;;;;;;8.15;5.13;;;;;;;6.01;100.00;101283.88;6287495;28;20533;-88
2023/04/08 03:02:30;;;;;;;8.10;5.40;;;;;;;6.08;100.00;101284.41;6286010;28;20127;-88
2023/04/08 03:05:32;;;;;;;9.10;4.95;;;;;;;6.04;100.00;101283.75;6286796;28;20186;-88
2023/04/08 03:08:34;;;;;;;10.48;5.93;;;;;;;5.91;100.00;101283.44;6287791;28;20489;-88
2023/04/08 03:11:36;;;;;;;7.95;4.97;;;;;;;5.92;100.00;101282.53;6286785;28;20033;-87
2023/04/08 03:14:39;;;;;;;9.18;5.20;;;;;;;5.96;100.00;101290.97;6287329;28;20037;-88
2023/04/08 03:17:41;;;;;;;8.95;5.25;;;;;;;5.90;100.00;101286.91;6286958;28;20614;-88
2023/04/08 03:20:43;;;;;;;10.68;5.65;;;;;;;5.91;100.00;101295.47;6288148;28;20047;-88
2023/04/08 03:23:45;;;;;;;12.32;6.60;;;;;;;5.93;100.00;101293.66;6283411;28;20414;-88
2023/04/08 03:26:47;;;;;;;9.40;5.82;;;;;;;5.84;100.00;101297.50;6276618;28;20119;-87
2023/04/08 03:29:49;;;;;;;11.88;6.00;;;;;;;5.86;100.00;101295.66;6287537;28;20499;-88
2023/04/08 03:32:51;;;;;;;8.70;5.30;;;;;;;5.86;100.00;101290.53;6287164;28;20407;-88
2023/04/08 03:35:54;;;;;;;9.90;6.03;;;;;;;5.93;100.00;101296.22;6278064;28;20043;-88
2023/04/08 03:38:56;;;;;;;8.57;5.22;;;;;;;5.91;100.00;101298.03;6287518;28;20044;-88
2023/04/08 03:41:59;;;;;;;10.15;5.57;;;;;;;5.95;100.00;101297.84;6286941;28;20041;-87
2023/04/08 03:45:01;;;;;;;8.95;6.05;;;;;;;5.81;100.00;101305.31;6286852;28;20127;-87
2023/04/08 03:48:03;;;;;;;9.70;5.47;;;;;;;5.87;100.00;101301.66;6286633;28;20451;-88
2023/04/08 03:51:05;;;;;;;10.95;5.93;;;;;;;5.89;100.00;101308.41;6286477;28;20047;-87
2023/04/08 03:54:07;;;;;;;7.72;5.28;;;;;;;5.87;100.00;101297.34;6285274;28;20044;-88
2023/04/08 03:57:10;;;;;;;9.23;5.47;;;;;;;5.94;100.00;101303.91;6286327;28;20040;-88
2023/04/08 04:00:13;;;;;;;7.38;5.20;;;;;;;5.86;100.00;101299.97;6284322;28;20501;-88
2023/04/08 04:03:15;;;;;;;8.77;5.78;;;;;;;5.89;100.00;101300.69;6286338;28;20052;-88
2023/04/08 04:06:17;;;;;;;9.02;5.40;;;;;;;5.88;100.00;101305.88;6285591;28;20036;-88
2023/04/08 04:09:19;;;;;;;8.82;5.25;;;;;;;5.87;100.00;101311.94;6286107;28;20044;-88
2023/04/08 04:12:21;;;;;;;9.00;6.07;;;;;;;5.72;100.00;101313.47;6286709;28;20113;-87
2023/04/08 04:15:23;;;;;;;8.80;5.70;;;;;;;5.74;100.00;101312.50;6286050;28;20048;-88
2023/04/08 04:18:24;;;;;;;9.35;5.80;;;;;;;5.80;100.00;101319.09;6282529;28;20055;-88
2023/04/08 04:21:26;;;;;;;9.95;6.63;;;;;;;5.86;100.00;101308.50;6285263;28;20125;-88
2023/04/08 04:24:28;;;;;;;9.18;6.32;;;;;;;5.87;100.00;101315.34;6285493;28;20152;-88
2023/04/08 04:27:30;;;;;;;10.23;5.93;;;;;;;5.77;100.00;101327.78;6286191;28;20059;-88
2023/04/08 04:30:31;;;;;;;9.85;6.38;;;;;;;5.71;100.00;101317.75;6286994;28;20049;-88
2023/04/08 04:33:33;;;;;;;8.93;5.50;;;;;;;5.68;100.00;101320.47;6284822;28;20045;-88
2023/04/08 04:36:35;;;;;;;9.85;5.72;;;;;;;5.74;100.00;101327.91;6285406;28;20540;-88
2023/04/08 04:39:37;;;;;;;8.75;5.22;;;;;;;5.82;100.00;101317.28;6283904;28;20072;-88
2023/04/08 04:42:39;;;;;;;10.70;6.38;;;;;;;5.79;100.00;101325.16;6285291;28;20044;-88
2023/04/08 04:45:40;;;;;;;11.30;5.97;;;;;;;5.80;100.00;101342.22;6286028;28;20033;-88
2023/04/08 04:48:43;;;;;;;8.80;6.03;;;;;;;5.90;100.00;101342.63;6286616;28;20781;-88
2023/04/08 04:51:46;;;;;;;9.98;5.65;;;;;;;5.87;100.00;101347.91;6286733;28;20036;-88
2023/04/08 04:54:47;;;;;;;10.52;6.15;;;;;;;5.83;100.00;101347.19;6285957;28;20149;-88
2023/04/08 04:57:49;;;;;;;11.80;6.38;;;;;;;5.77;100.00;101352.63;6285669;28;20041;-88
2023/04/08 05:00:51;;;;;;;9.90;6.18;;;;;;;5.74;100.00;101348.47;6285734;28;20044;-88
2023/04/08 05:03:52;;;;;;;11.40;6.47;;;;;;;5.75;100.00;101364.72;6285434;28;20135;-88
2023/04/08 05:06:54;;;;;;;10.93;6.30;;;;;;;5.75;100.00;101355.25;6286165;28;20079;-88
2023/04/08 05:09:56;;;;;;;13.30;7.75;;;;;;;5.88;100.00;101360.66;6283458;28;20044;-88
2023/04/08 05:12:58;;;;;;;11.35;7.18;;;;;;;5.93;100.00;101353.56;6284115;28;20537;-88
2023/04/08 05:16:00;;;;;;;11.90;7.65;;;;;;;5.86;100.00;101359.06;6285816;28;20051;-87
2023/04/08 05:19:01;;;;;;;16.52;8.63;;;;;;;5.88;100.00;101362.41;6286017;28;20043;-88
2023/04/08 05:22:03;;;;;;;15.80;8.38;;;;;;;5.82;100.00;101366.94;6283805;28;20043;-88
2023/04/08 05:25:06;;;;;;;17.48;9.57;;;;;;;5.90;100.00;101374.28;6284826;28;20521;-88
2023/04/08 05:28:09;;;;;;;16.10;8.55;;;;;;;5.97;100.00;101377.44;6284334;28;20037;-88
2023/04/08 05:31:11;;;;;;;18.45;9.45;;;;;;;5.92;100.00;101374.22;6284371;28;20040;-88
2023/04/08 05:34:14;;;;;;;16.50;9.35;;;;;;;5.96;100.00;101368.06;6285090;28;20469;-88
2023/04/08 05:37:16;;;;;;;16.58;8.55;;;;;;;5.92;100.00;101380.19;6286403;28;20036;-88
2023/04/08 05:40:18;;;;;;;21.70;9.93;;;;;;;5.91;100.00;101383.63;6288496;28;20045;-88
2023/04/08 05:43:20;;;;;;;20.38;10.15;;;;;;;5.93;100.00;101374.13;6289757;28;20048;-88
2023/04/08 05:46:22;;;;;;;18.55;8.95;;;;;;;5.99;100.00;101378.22;6289380;28;20045;-88
2023/04/08 05:49:24;;;;;;;16.45;8.75;;;;;;;5.96;100.00;101380.91;6288862;28;20055;-88
2023/04/08 05:52:26;;;;;;;21.02;9.68;;;;;;;5.96;100.00;101389.47;6288779;28;20090;-87
2023/04/08 05:55:28;;;;;;;19.40;8.95;;;;;;;5.99;100.00;101391.06;6289622;28;20570;-88
2023/04/08 05:58:30;;;;;;;19.63;9.60;;;;;;;6.06;100.00;101392.41;6289662;28;20059;-88
2023/04/08 06:01:31;;;;;;;18.77;9.13;;;;;;;6.05;100.00;101388.19;6289238;28;20048;-88
2023/04/08 06:04:33;;;;;;;21.17;9.70;;;;;;;6.09;100.00;101399.16;6271521;28;20414;-88
2023/04/08 06:07:35;;;;;;;19.15;9.77;;;;;;;6.14;100.00;101392.09;6289706;28;20044;-88
2023/04/08 06:10:37;;;;;;;21.73;9.88;;;;;;;6.09;100.00;101396.59;6288734;28;20044;-87
2023/04/08 06:13:39;;;;;;;21.67;10.57;;;;;;;6.16;100.00;101406.53;6289134;28;20051;-88
2023/04/08 06:16:40;;;;;;;21.70;9.40;;;;;;;6.17;100.00;101413.34;6289277;28;20041;-88
2023/04/08 06:19:42;;;;;;;20.10;9.20;;;;;;;6.17;100.00;101407.38;6289317;28;20169;-88
2023/04/08 06:22:44;;;;;;;18.73;9.10;;;;;;;6.17;100.00;101415.06;6289978;28;20403;-88
2023/04/08 06:25:46;;;;;;;23.80;9.10;;;;;;;6.15;100.00;101417.72;6271381;28;20048;-88
2023/04/08 06:28:48;;;;;;;20.90;10.35;;;;;;;6.24;100.00;101419.84;6284592;28;20079;-89
2023/04/08 06:31:50;;;;;;;22.10;9.68;;;;;;;6.31;100.00;101423.00;6288731;28;20507;-88
2023/04/08 06:34:52;;;;;;;21.00;10.35;;;;;;;6.33;100.00;101428.03;6288848;28;20036;-88
2023/04/08 06:37:54;;;;;;;18.27;9.20;;;;;;;6.35;100.00;101426.25;6288107;28;20044;-88
2023/04/08 06:40:55;;;;;;;18.00;9.48;;;;;;;6.45;100.00;101423.16;6288553;28;20125;-88
2023/04/08 06:43:57;;;;;;;17.40;9.48;;;;;;;6.56;100.00;101432.94;6286732;28;20083;-88
2023/04/08 06:46:59;;;;;;;17.50;9.25;;;;;;;6.70;100.00;101421.97;6287712;28;20365;-88
2023/04/08 06:50:01;;;;;;;18.55;9.50;;;;;;;6.69;100.00;101434.03;6269596;28;20044;-88
2023/04/08 06:53:03;;;;;;;16.67;9.40;;;;;;;6.65;100.00;101429.91;6288653;28;20045;-88
2023/04/08 06:56:05;;;;;;;18.73;10.20;;;;;;;6.76;100.00;101426.00;6284395;28;20427;-88
2023/04/08 06:59:07;;;;;;;18.13;9.65;;;;;;;6.87;100.00;101436.59;6287210;28;20046;-88
2023/04/08 07:02:10;;;;;;;18.15;9.95;;;;;;;7.02;100.00;101435.84;6286531;28;20040;-88
2023/04/08 07:05:12;;;;;;;17.20;9.85;;;;;;;7.15;100.00;101433.50;6275568;28;20049;-88
2023/04/08 07:08:14;;;;;;;19.50;10.02;;;;;;;7.19;100.00;101441.91;6286296;28;20078;-88
2023/04/08 07:11:16;;;;;;;19.50;10.15;;;;;;;7.06;100.00;101439.13;6286456;28;20313;-88
2023/04/08 07:14:18;;;;;;;16.95;9.27;;;;;;;7.13;100.00;101445.63;6281008;28;20037;-88
2023/04/08 07:17:20;;;;;;;21.00;9.55;;;;;;;7.14;100.00;101449.03;6283179;28;20048;-88
2023/04/08 07:20:23;;;;;;;18.58;9.52;;;;;;;7.13;100.00;101450.78;6286678;28;20521;-88
2023/04/08 07:23:25;;;;;;;17.88;9.57;;;;;;;7.09;100.00;101460.38;6286485;28;20509;-88
2023/04/08 07:26:27;;;;;;;20.35;10.50;;;;;;;7.14;100.00;101455.00;6285474;28;20044;-88
2023/04/08 07:29:29;;;;;;;21.83;10.75;;;;;;;7.25;100.00;101449.31;6285924;28;20040;-88
2023/04/08 07:32:32;;;;;;;22.45;10.65;;;;;;;7.32;100.00;101456.66;6287320;28;20040;-88
2023/04/08 07:35:34;;;;;;;19.27;9.93;;;;;;;7.42;100.00;101462.19;6285983;28;20051;-88
2023/04/08 07:38:37;;;;;;;25.38;10.60;;;;;;;7.49;100.00;101460.13;6286604;28;20044;-88
2023/04/08 07:41:39;;;;;;;22.73;9.68;;;;;;;7.48;100.00;101456.72;6286210;28;20043;-88
2023/04/08 07:44:41;;;;;;;20.90;10.05;;;;;;;7.48;100.00;101458.47;6281947;28;20454;-88
2023/04/08 07:47:43;;;;;;;18.60;9.80;;;;;;;7.45;100.00;101469.78;6285713;28;20076;-88
2023/04/08 07:50:46;;;;;;;18.92;10.05;;;;;;;7.60;100.00;101462.97;6285560;28;20036;-88
2023/04/08 07:54:09;;;;;;;17.25;9.45;;;;;;;7.72;100.00;101469.25;6280056;28;20128;-88
2023/04/08 07:57:11;;;;;;;18.13;10.07;;;;;;;7.70;100.00;101476.22;6285439;28;20044;-88
2023/04/08 08:00:19;;;;;;;18.20;9.48;;;;;;;7.72;100.00;101472.66;6285261;28;20093;-88
2023/04/08 08:03:21;;;;;;;19.05;10.45;;;;;;;7.73;100.00;101481.25;6285361;28;20079;-88
2023/04/08 08:06:23;;;;;;;16.45;9.13;;;;;;;7.66;100.00;101475.56;6284761;28;20032;-88
2023/04/08 08:09:25;;;;;;;17.63;9.30;;;;;;;7.68;100.00;101480.66;6285954;28;20040;-89
2023/04/08 08:12:27;;;;;;;16.00;9.43;;;;;;;7.72;100.00;101484.72;6285308;28;20048;-88
2023/04/08 08:15:29;;;;;;;17.83;10.00;;;;;;;7.74;100.00;101480.31;6279698;28;20045;-88
2023/04/08 08:18:30;;;;;;;16.77;9.00;;;;;;;7.94;100.00;101487.84;6284283;28;20041;-88
2023/04/08 08:21:35;;;;;;;16.55;9.50;;;;;;;8.02;100.00;101484.84;6282979;28;20040;-88
2023/04/08 08:24:36;;;;;;;18.92;9.32;;;;;;;8.02;100.00;101490.00;6281257;28;20380;-88
2023/04/08 08:27:40;;;;;;;18.00;9.68;;;;;;;8.09;100.00;101493.94;6283766;28;20048;-88
2023/04/08 08:30:42;;;;;;;16.85;10.35;;;;;;;8.03;100.00;101496.03;6284073;28;20589;-88
2023/04/08 08:33:45;;;;;;;20.35;10.30;;;;;;;8.03;100.00;101493.44;6284469;28;20051;-88
2023/04/08 08:36:47;;;;;;;17.77;9.93;;;;;;;8.16;100.00;101503.03;6282280;28;20036;-88
2023/04/08 08:39:49;;;;;;;16.70;9.25;;;;;;;8.18;100.00;101508.09;6282970;28;20033;-89
2023/04/08 08:42:51;;;;;;;19.63;10.23;;;;;;;8.16;100.00;101505.59;6284208;28;20049;-88
2023/04/08 08:45:54;;;;;;;18.50;10.02;;;;;;;8.10;100.00;101512.81;6285379;28;20040;-88
2023/04/08 08:48:56;;;;;;;18.60;10.45;;;;;;;8.09;100.00;101514.56;6284915;28;20498;-88
2023/04/08 08:51:59;;;;;;;18.23;10.07;;;;;;;8.12;100.00;101505.84;6284827;28;20403;-88
2023/04/08 08:55:01;;;;;;;19.80;10.65;;;;;;;8.24;100.00;101522.41;6266917;28;20040;-88
2023/04/08 08:58:10;;;;;;;22.23;10.98;;;;;;;8.29;100.00;101512.69;6284388;28;20078;-89
2023/04/08 09:01:37;;;;;;;18.40;9.75;;;;;;;8.41;100.00;101518.03;6284424;28;20040;-91
2023/04/08 09:04:55;;;;;;;17.98;10.15;;;;;;;8.56;100.00;101515.56;6296176;28;20585;-88
2023/04/08 09:07:57;;;;;;;18.13;10.15;;;;;;;8.71;100.00;101521.63;6282966;28;20090;-88
2023/04/08 09:11:20;;;;;;;18.15;10.25;;;;;;;8.79;100.00;101515.13;6284528;28;20051;-88
2023/04/08 09:14:24;;;;;;;19.08;10.45;;;;;;;8.87;100.00;101529.34;6279818;28;20347;-89
2023/04/08 09:17:37;;;;;;;18.73;10.98;;;;;;;8.92;100.00;101535.06;6277596;28;20513;-88
2023/04/08 09:20:51;;;;;;;17.70;10.55;;;;;;;8.96;100.00;101534.81;6284759;28;20052;-88
2023/04/08 09:23:53;;;;;;;16.55;9.40;;;;;;;9.00;100.00;101540.66;6288737;28;20131;-88
2023/04/08 09:26:55;;;;;;;19.33;10.38;;;;;;;8.97;100.00;101539.09;6287421;28;20052;-88
2023/04/08 09:30:15;;;;;;;19.52;10.75;;;;;;;8.82;100.00;101540.78;6288438;28;20041;-88
2023/04/08 09:33:17;;;;;;;18.58;10.15;;;;;;;8.91;100.00;101543.75;6288394;28;20045;-88
2023/04/08 09:36:19;;;;;;;17.25;10.25;;;;;;;8.92;100.00;101546.25;6285790;28;20219;-88
2023/04/08 09:39:21;;;;;;;19.70;10.38;;;;;;;8.82;100.00;101553.69;6285714;28;20075;-88
2023/04/08 09:42:23;;;;;;;20.58;11.38;;;;;;;8.81;100.00;101553.75;6288218;28;20043;-88
2023/04/08 09:45:26;;;;;;;20.10;10.70;;;;;;;8.89;100.00;101567.06;6286886;28;20052;-89
2023/04/08 09:48:35;;;;;;;19.10;11.05;;;;;;;8.89;100.00;101566.25;6288257;28;20049;-88
2023/04/08 09:51:59;;;;;;;19.65;10.02;;;;;;;8.88;100.00;101568.00;6288404;28;20047;-88
2023/04/08 09:55:04;;;;;;;18.15;10.85;;;;;;;8.87;100.00;101561.19;6286810;28;20499;-88
2023/04/08 09:58:18;;;;;;;19.80;10.57;;;;;;;9.08;100.00;101558.31;6286168;28;20074;-87
2023/04/08 10:01:27;;;;;;;20.63;11.35;;;;;;;9.20;100.00;101561.03;6281997;28;20080;-88
2023/04/08 10:04:31;;;;;;;19.83;10.68;;;;;;;9.25;100.00;101558.19;6282798;28;20048;-88
2023/04/08 10:07:35;;;;;;;22.42;11.52;;;;;;;9.40;100.00;101559.91;6287762;28;20082;-87
2023/04/08 10:10:44;;;;;;;21.50;10.98;;;;;;;9.56;100.00;101548.66;6287604;28;20048;-87
2023/04/08 10:13:49;;;;;;;20.25;11.48;;;;;;;9.57;100.00;101564.09;6287588;28;20510;-87
2023/04/08 10:17:11;;;;;;;24.80;12.43;;;;;;;9.59;100.00;101567.44;6285946;28;20640;-88
2023/04/08 10:20:35;;;;;;;22.13;11.85;;;;;;;9.53;100.00;101559.19;6284084;28;20114;-87
2023/04/08 10:24:08;;;;;;;19.17;10.65;;;;;;;9.62;100.00;101556.91;6275521;28;20037;-87
2023/04/08 10:27:40;;;;;;;22.80;11.60;;;;;;;9.65;100.00;101567.06;6283147;28;20059;-87
2023/04/08 10:30:44;;;;;;;22.65;12.55;;;;;;;9.67;100.00;101560.06;6274413;28;20365;-90
2023/04/08 10:33:46;;;;;;;19.77;12.38;;;;;;;9.65;100.00;101561.91;6268482;28;20502;-90
2023/04/08 10:36:53;;;;;;;21.70;11.32;;;;;;;9.66;100.00;101561.00;6284352;28;20060;-90
2023/04/08 10:39:55;;;;;;;21.00;11.52;;;;;;;9.63;100.00;101566.31;6281486;28;20048;-90
2023/04/08 10:42:59;;;;;;;20.67;11.65;;;;;;;9.64;100.00;101562.00;6279970;28;20052;-90
2023/04/08 10:46:01;;;;;;;21.08;10.90;;;;;;;9.57;100.00;101565.84;6272955;28;20112;-90
2023/04/08 10:49:03;;;;;;;22.85;11.77;;;;;;;9.51;100.00;101561.84;6279978;28;20048;-90
2023/04/08 10:52:07;;;;;;;24.85;12.90;;;;;;;9.58;100.00;101557.16;6266867;28;20120;-90
2023/04/08 10:55:08;;;;;;;23.58;13.05;;;;;;;9.74;100.00;101570.88;6279697;28;20048;-90
2023/04/08 10:58:11;;;;;;;21.58;11.07;;;;;;;9.78;100.00;101577.50;6276212;28;20135;-90
2023/04/08 11:01:13;;;;;;;24.15;12.45;;;;;;;9.78;100.00;101571.50;6282299;28;20055;-90
2023/04/08 11:04:18;;;;;;;21.52;11.52;;;;;;;9.79;100.00;101568.00;6285128;28;20057;-90
2023/04/08 11:07:20;;;;;;;22.55;11.75;;;;;;;9.65;100.00;101577.41;6286943;28;20040;-90
2023/04/08 11:10:22;;;;;;;22.73;12.77;;;;;;;9.59;100.00;101574.34;6286343;28;20044;-90
2023/04/08 11:13:25;;;;;;;21.92;11.43;;;;;;;9.74;100.00;101577.78;6284520;28;20094;-90
2023/04/08 11:16:28;;;;;;;24.05;12.13;;;;;;;9.78;100.00;101576.69;6286689;28;20040;-90
2023/04/08 11:19:30;;;;;;;22.17;11.43;;;;;;;9.70;100.00;101582.31;6286527;28;20044;-90
2023/04/08 11:22:33;;;;;;;22.85;12.05;;;;;;;9.67;100.00;101575.56;6284681;28;20506;-90
2023/04/08 11:25:35;;;;;;;22.50;11.90;;;;;;;9.75;100.00;101571.72;6285909;28;20414;-88
2023/04/08 11:28:37;;;;;;;21.35;11.40;;;;;;;9.70;100.00;101571.97;6266803;28;20040;-88
2023/04/08 11:31:42;;;;;;;23.67;11.65;;;;;;;9.64;100.00;101580.91;6283506;28;20072;-88
2023/04/08 11:34:46;;;;;;;23.58;12.43;;;;;;;9.53;100.00;101575.53;6284657;28;20115;-88
2023/04/08 11:37:48;;;;;;;19.33;10.63;;;;;;;9.49;100.00;101581.81;6284388;28;20032;-88
2023/04/08 11:40:58;;;;;;;22.55;12.70;;;;;;;9.54;100.00;101582.38;6283381;28;20142;-88
2023/04/08 11:44:00;;;;;;;20.48;11.13;;;;;;;9.55;100.00;101578.88;6283428;28;20108;-88
2023/04/08 11:47:02;;;;;;;23.00;11.75;;;;;;;9.62;100.00;101572.41;6285614;28;20116;-88
2023/04/08 11:50:05;;;;;;;20.55;11.05;;;;;;;9.75;100.00;101571.72;6266397;28;20106;-88
2023/04/08 11:53:18;;;;;;;22.40;11.50;;;;;;;9.88;100.00;101580.41;6283691;28;20040;-88
2023/04/08 11:56:24;;;;;;;21.20;11.88;;;;;;;9.86;100.00;101588.25;6283199;28;20044;-88
2023/04/08 11:59:26;;;;;;;23.65;12.57;;;;;;;9.80;100.00;101588.59;6284642;28;20047;-89
2023/04/08 12:02:30;;;;;;;23.85;12.25;;;;;;;9.68;100.00;101592.72;6273848;28;20466;-88
2023/04/08 12:05:32;;;;;;;22.27;12.02;;;;;;;9.69;100.00;101596.16;6282479;28;20036;-88
2023/04/08 12:08:34;;;;;;;21.15;11.77;;;;;;;9.64;100.00;101600.78;6284838;28;20289;-88
2023/04/08 12:11:37;;;;;;;22.52;11.68;;;;;;;9.52;100.00;101604.88;6282990;28;20040;-88
2023/04/08 12:14:40;;;;;;;22.25;11.68;;;;;;;9.47;100.00;101604.31;6280842;28;20163;-88
2023/04/08 12:17:45;;;;;;;22.33;11.98;;;;;;;9.41;100.00;101596.91;6283278;28;20040;-88
2023/04/08 12:20:47;;;;;;;20.70;10.77;;;;;;;9.37;100.00;101592.84;6273993;28;20052;-88
2023/04/08 12:23:49;;;;;;;19.23;10.90;;;;;;;9.44;100.00;101599.31;6284999;28;20048;-88
2023/04/08 12:26:51;;;;;;;24.48;12.05;;;;;;;9.47;100.00;101606.91;6273575;28;20041;-88
2023/04/08 12:29:54;;;;;;;21.77;12.20;;;;;;;9.48;100.00;101603.38;6282919;28;20049;-88
2023/04/08 12:32:57;;;;;;;22.38;12.98;;;;;;;9.52;100.00;101596.31;6284840;28;20592;-88
2023/04/08 12:35:59;;;;;;;22.15;12.40;;;;;;;9.56;100.00;101593.44;6283890;28;20029;-88
2023/04/08 12:39:01;;;;;;;19.85;11.52;;;;;;;9.62;100.00;101602.63;6285111;28;20523;-88
2023/04/08 12:42:03;;;;;;;22.42;11.82;;;;;;;9.55;100.00;101602.13;6284991;28;20044;-88
2023/04/08 12:45:07;;;;;;;20.60;12.77;;;;;;;9.48;100.00;101605.97;6282146;28;20045;-88
2023/04/08 12:48:09;;;;;;;19.98;11.68;;;;;;;9.36;100.00;101597.16;6285184;28;20032;-88
2023/04/08 12:51:11;;;;;;;19.58;11.73;;;;;;;9.26;100.00;101591.69;6282631;28;20040;-88
2023/04/08 12:54:13;;;;;;;22.75;12.15;;;;;;;9.26;100.00;101594.25;6281114;28;20056;-88
2023/04/08 12:57:15;;;;;;;20.58;12.25;;;;;;;9.24;100.00;101590.97;6266268;28;20487;-88
2023/04/08 13:00:18;;;;;;;20.83;12.10;;;;;;;9.26;100.00;101594.25;6283921;28;20489;-88
2023/04/08 13:03:20;;;;;;;20.83;12.25;;;;;;;9.34;100.00;101587.81;6284552;28;20040;-88
2023/04/08 13:06:22;;;;;;;21.20;12.38;;;;;;;9.42;100.00;101593.41;6278330;28;20049;-88
2023/04/08 13:09:24;;;;;;;21.58;12.90;;;;;;;9.56;100.00;101596.03;6266668;28;20533;-88
2023/04/08 13:12:27;;;;;;;21.35;13.30;;;;;;;9.58;100.00;101601.13;6284452;28;20033;-88
2023/04/08 13:15:29;;;;;;;23.17;13.75;;;;;;;9.66;100.00;101597.19;6284566;28;20052;-88
2023/04/08 13:18:31;;;;;;;24.10;12.65;;;;;;;9.65;100.00;101587.75;6283218;28;20383;-88
2023/04/08 13:21:33;;;;;;;20.33;12.25;;;;;;;9.72;100.00;101588.22;6262637;28;20663;-89
2023/04/08 13:24:35;;;;;;;22.08;12.15;;;;;;;9.80;100.00;101582.59;6284535;28;20044;-88
2023/04/08 13:27:37;;;;;;;21.63;12.18;;;;;;;9.93;100.00;101578.38;6283425;28;20406;-88
2023/04/08 13:30:39;;;;;;;19.75;11.50;;;;;;;9.96;100.00;101577.34;6274418;28;20041;-88
2023/04/08 13:33:41;;;;;;;20.17;11.63;;;;;;;10.12;100.00;101584.09;6281005;28;20041;-88
2023/04/08 13:36:43;;;;;;;20.23;11.60;;;;;;;10.29;100.00;101574.53;6285091;28;20055;-88
2023/04/08 13:39:44;;;;;;;19.50;11.30;;;;;;;10.14;100.00;101584.03;6285356;28;20755;-88
2023/04/08 13:42:46;;;;;;;21.92;12.85;;;;;;;10.00;100.00;101582.25;6284451;28;20059;-88
2023/04/08 13:45:49;;;;;;;20.48;12.52;;;;;;;10.17;100.00;101590.78;6282392;28;20091;-88
2023/04/08 13:48:50;;;;;;;20.75;11.98;;;;;;;10.34;100.00;101583.69;6284827;28;20049;-88
2023/04/08 13:51:53;;;;;;;21.45;12.82;;;;;;;10.55;100.00;101583.28;6280884;28;20143;-88
2023/04/08 13:54:55;;;;;;;19.92;11.27;;;;;;;10.72;100.00;101584.81;6282661;28;20059;-88
2023/04/08 13:57:58;;;;;;;19.40;11.45;;;;;;;10.77;100.00;101588.78;6286258;28;20395;-88
2023/04/08 14:01:01;;;;;;;21.65;13.02;;;;;;;10.77;100.00;101582.78;6283153;28;20044;-88
2023/04/08 14:04:03;;;;;;;20.75;12.25;;;;;;;10.72;100.00;101584.81;6286684;28;20150;-88